Time;durP1;ratioP1;P1;durP2;ratioP2;P2;SDS_P1;SDS_P2;PMS_P1;PMS_P2;Temp;Humidity;BMP_temperature;BMP_pressure;BME280_temperature;BME280_humidity;BME280_pressure;Samples;Min_cycle;Max_cycle;Signal;HPM_P1;HPM_P2
2021/06/21 00:00:32;;;;;;;;;9.00;8.00;;;;;26.26;51.27;99691.06;5060235;27;45279;-74
2021/06/21 00:02:58;;;;;;;;;10.25;9.75;;;;;26.21;51.05;99691.38;5067102;27;45277;-75
2021/06/21 00:05:23;;;;;;;;;8.50;6.25;;;;;26.24;50.98;99697.47;5084022;27;45943;-74
2021/06/21 00:07:48;;;;;;;;;9.00;9.00;;;;;26.20;50.80;99692.34;5083952;27;45283;-74
2021/06/21 00:10:15;;;;;;;;;6.75;6.75;;;;;26.19;50.87;99692.47;5066831;27;45689;-74
2021/06/21 00:12:43;;;;;;;;;8.25;8.25;;;;;26.16;51.19;99685.53;5066904;27;46100;-75
2021/06/21 00:15:09;;;;;;;;;7.25;7.25;;;;;26.16;51.17;99690.03;5037288;28;46995;-75
2021/06/21 00:17:35;;;;;;;;;8.50;8.50;;;;;26.17;50.89;99695.25;5053356;27;45443;-75
2021/06/21 00:20:00;;;;;;;;;9.50;9.00;;;;;26.19;51.11;99692.47;5066592;27;47808;-74
2021/06/21 00:22:26;;;;;;;;;9.00;9.00;;;;;26.19;51.02;99696.00;5079580;27;59767;-74
2021/06/21 00:24:51;;;;;;;;;10.25;9.50;;;;;26.18;51.21;99693.44;5049880;28;59423;-75
2021/06/21 00:27:19;;;;;;;;;9.50;9.50;;;;;26.15;51.20;99686.50;5026543;28;45201;-74
2021/06/21 00:29:45;;;;;;;;;8.50;6.75;;;;;26.12;51.02;99688.53;5060053;28;45337;-74
2021/06/21 00:32:10;;;;;;;;;9.00;7.00;;;;;26.14;51.44;99695.47;5042868;28;45538;-74
2021/06/21 00:34:35;;;;;;;;;9.75;8.25;;;;;26.15;50.95;99702.56;5073434;28;53912;-75
2021/06/21 00:37:01;;;;;;;;;7.50;7.50;;;;;26.11;51.30;99702.88;5080025;28;45254;-75
2021/06/21 00:39:27;;;;;;;;;8.25;7.00;;;;;26.12;51.15;99705.41;5078810;28;45489;-75
2021/06/21 00:42:13;;;;;;;;;6.75;6.75;;;;;26.12;51.34;99699.22;5079874;28;45691;-75
2021/06/21 00:44:38;;;;;;;;;8.50;7.00;;;;;26.10;51.79;99695.81;5079074;27;47888;-74
2021/06/21 00:47:03;;;;;;;;;6.50;6.00;;;;;26.14;51.45;99706.16;5037869;28;47461;-74
2021/06/21 00:49:29;;;;;;;;;6.25;6.00;;;;;26.14;51.48;99699.97;5074792;28;45642;-74
2021/06/21 00:51:56;;;;;;;;;6.25;5.25;;;;;26.16;51.34;99698.06;5080479;28;56841;-74
2021/06/21 00:54:22;;;;;;;;;6.00;6.00;;;;;26.17;51.38;99694.41;5079280;28;48229;-74
2021/06/21 00:56:47;;;;;;;;;6.75;6.75;;;;;26.18;51.25;99701.47;5079473;28;55914;-74
2021/06/21 00:59:15;;;;;;;;;5.75;5.50;;;;;26.16;51.39;99695.38;5079631;28;45206;-74
2021/06/21 01:01:41;;;;;;;;;6.00;6.00;;;;;26.20;51.15;99708.41;5079877;28;45265;-74
2021/06/21 01:04:06;;;;;;;;;8.25;7.50;;;;;26.18;51.17;99704.13;5062635;28;46090;-74
2021/06/21 01:06:31;;;;;;;;;7.50;6.75;;;;;26.19;51.20;99708.53;5062732;28;45443;-74
2021/06/21 01:08:57;;;;;;;;;7.00;7.00;;;;;26.17;51.15;99700.63;5048442;28;58784;-74
2021/06/21 01:11:35;;;;;;;;;6.75;6.75;;;;;26.12;51.22;99697.41;5079785;28;45357;-74
2021/06/21 01:14:14;;;;;;;;;7.00;7.00;;;;;26.11;51.36;99702.88;5063781;28;46009;-74
2021/06/21 01:16:42;;;;;;;;;5.25;5.25;;;;;26.09;51.00;99699.44;5079626;28;45233;-74
2021/06/21 01:19:45;;;;;;;;;7.50;7.00;;;;;26.08;51.50;99701.28;5063123;28;45491;-74
2021/06/21 01:22:20;;;;;;;;;7.25;6.50;;;;;26.08;51.30;99705.78;5060205;28;45281;-74
2021/06/21 01:25:17;;;;;;;;;7.50;6.75;;;;;26.00;51.55;99700.13;5060078;28;45286;-74
2021/06/21 01:27:51;;;;;;;;;8.00;8.00;;;;;25.97;51.38;99701.16;5035142;28;46499;-74
2021/06/21 01:30:18;;;;;;;;;9.25;9.25;;;;;25.91;51.74;99699.78;5060429;28;45595;-74
2021/06/21 01:32:54;;;;;;;;;8.75;8.75;;;;;25.83;51.73;99699.47;5042434;28;45375;-74
2021/06/21 01:35:40;;;;;;;;;10.00;9.25;;;;;25.85;52.12;99710.91;5043337;28;45433;-74
2021/06/21 01:38:08;;;;;;;;;9.75;9.50;;;;;25.83;52.12;99709.31;5025552;28;46087;-74
2021/06/21 01:40:40;;;;;;;;;8.50;8.50;;;;;25.84;52.18;99719.03;5058933;28;45244;-74
2021/06/21 01:43:05;;;;;;;;;11.25;10.00;;;;;25.83;52.03;99709.31;5059816;28;45329;-74
2021/06/21 01:45:31;;;;;;;;;11.50;11.00;;;;;25.88;51.88;99717.84;5024973;28;54848;-74
2021/06/21 01:47:56;;;;;;;;;12.00;9.00;;;;;25.90;51.89;99710.59;5041802;28;45417;-74
2021/06/21 01:50:24;;;;;;;;;9.25;9.25;;;;;25.90;51.85;99711.47;5059390;28;45438;-74
2021/06/21 01:52:56;;;;;;;;;8.50;8.00;;;;;25.91;51.81;99715.84;5063421;28;45253;-74
2021/06/21 01:55:22;;;;;;;;;11.25;10.75;;;;;25.92;51.87;99711.34;5046024;28;46288;-74
2021/06/21 01:57:47;;;;;;;;;9.00;9.00;;;;;25.91;51.26;99718.50;5061878;28;45215;-74
2021/06/21 02:00:13;;;;;;;;;8.25;6.75;;;;;25.86;50.95;99720.63;5045620;28;45548;-74
2021/06/21 02:02:39;;;;;;;;;7.50;6.00;;;;;25.88;50.99;99718.72;5045217;28;46252;-73
2021/06/21 02:05:05;;;;;;;;;7.75;7.75;;;;;25.79;50.73;99722.03;5062245;28;45389;-74
2021/06/21 02:07:30;;;;;;;;;8.00;8.00;;;;;25.83;51.02;99731.56;5061870;28;45198;-74
2021/06/21 02:09:56;;;;;;;;;5.50;5.50;;;;;25.79;50.29;99724.69;5028632;28;45488;-74
2021/06/21 02:12:23;;;;;;;;;5.00;5.00;;;;;25.84;50.02;99733.28;5028293;28;47651;-74
2021/06/21 02:14:49;;;;;;;;;5.00;5.00;;;;;25.80;50.24;99737.13;5045390;28;45461;-73
2021/06/21 02:17:16;;;;;;;;;7.25;5.75;;;;;25.81;50.29;99728.16;5045192;28;46185;-73
2021/06/21 02:19:41;;;;;;;;;5.25;5.00;;;;;25.81;49.89;99733.50;5045588;28;45394;-73
2021/06/21 02:22:06;;;;;;;;;5.00;5.00;;;;;25.71;49.75;99718.19;5054593;28;64401;-73
2021/06/21 02:24:34;;;;;;;;;7.00;6.00;;;;;25.72;49.92;99731.47;5064934;28;47504;-73
2021/06/21 02:27:00;;;;;;;;;4.25;4.25;;;;;25.73;49.78;99735.00;5065165;28;45276;-73
2021/06/21 02:29:26;;;;;;;;;4.75;4.50;;;;;25.65;48.99;99724.78;5081562;28;57645;-74
2021/06/21 02:31:51;;;;;;;;;4.75;4.75;;;;;25.65;49.28;99736.34;5048437;28;45247;-74
2021/06/21 02:34:17;;;;;;;;;2.00;2.00;;;;;25.67;49.39;99741.56;5064953;28;45983;-74
2021/06/21 02:36:44;;;;;;;;;3.00;3.00;;;;;25.64;49.72;99741.78;5030849;28;45368;-73
2021/06/21 02:39:10;;;;;;;;;4.25;3.25;;;;;25.66;49.69;99747.88;5061561;28;45339;-74
2021/06/21 02:41:36;;;;;;;;;3.00;3.00;;;;;25.61;49.92;99742.84;5078497;28;45315;-74
2021/06/21 02:44:02;;;;;;;;;3.00;3.00;;;;;25.56;49.41;99736.13;5055397;28;45746;-74
2021/06/21 02:46:28;;;;;;;;;5.00;4.00;;;;;25.55;49.76;99748.63;5064955;28;45270;-74
2021/06/21 02:48:53;;;;;;;;;3.00;3.00;;;;;25.54;49.20;99746.03;5064817;28;47859;-74
2021/06/21 02:51:35;;;;;;;;;2.75;2.75;;;;;25.44;49.29;99731.59;5064648;28;45411;-74
2021/06/21 02:54:10;;;;;;;;;4.50;4.50;;;;;25.46;49.26;99741.25;5049362;28;47225;-74
2021/06/21 02:56:41;;;;;;;;;4.00;3.25;;;;;25.48;49.59;99741.13;5065073;28;45315;-74
2021/06/21 02:59:09;;;;;;;;;4.00;4.00;;;;;25.41;49.58;99735.34;5065270;28;45247;-74
2021/06/21 03:01:35;;;;;;;;;5.00;4.00;;;;;25.44;49.73;99742.28;5044281;28;45390;-74
2021/06/21 03:04:01;;;;;;;;;5.00;3.25;;;;;25.41;49.82;99755.84;5057023;28;45465;-74
2021/06/21 03:06:26;;;;;;;;;4.00;4.00;;;;;25.39;49.86;99761.31;5081559;28;45320;-74
2021/06/21 03:08:52;;;;;;;;;5.75;4.00;;;;;25.34;49.50;99763.44;5064258;28;48484;-74
2021/06/21 03:11:17;;;;;;;;;3.00;3.00;;;;;25.30;50.16;99760.13;5047874;28;45217;-74
2021/06/21 03:13:47;;;;;;;;;4.75;4.75;;;;;25.31;49.92;99753.81;5047193;28;46597;-74
2021/06/21 03:16:12;;;;;;;;;4.50;4.50;;;;;25.28;49.59;99750.47;5064606;28;45389;-74
2021/06/21 03:18:41;;;;;;;;;5.00;5.00;;;;;25.25;49.67;99761.38;5064159;28;47161;-74
2021/06/21 03:21:06;;;;;;;;;3.00;3.00;;;;;25.18;50.06;99758.25;5066804;27;45323;-74
2021/06/21 03:23:31;;;;;;;;;5.25;5.00;;;;;25.19;49.61;99751.94;5037390;27;48491;-74
2021/06/21 03:25:59;;;;;;;;;6.25;5.00;;;;;25.19;50.15;99753.75;5084506;27;45259;-74
2021/06/21 03:28:24;;;;;;;;;4.75;4.75;;;;;25.21;49.53;99758.06;5067810;27;45449;-74
2021/06/21 03:30:52;;;;;;;;;6.00;5.50;;;;;25.21;49.57;99755.41;5084542;27;45240;-74
2021/06/21 03:33:17;;;;;;;;;5.00;4.00;;;;;25.19;50.06;99749.28;5102557;27;46254;-74
2021/06/21 03:35:43;;;;;;;;;3.00;3.00;;;;;25.13;49.70;99752.38;5084517;27;45395;-74
2021/06/21 03:38:09;;;;;;;;;6.00;4.25;;;;;25.01;49.92;99737.97;5102872;27;45275;-74
2021/06/21 03:40:35;;;;;;;;;6.00;5.00;;;;;25.16;50.06;99748.63;5102646;27;45560;-74
2021/06/21 03:43:00;;;;;;;;;5.00;5.00;;;;;25.18;50.15;99747.56;5083648;27;59356;-74
2021/06/21 03:45:25;;;;;;;;;5.00;5.00;;;;;25.25;50.18;99756.03;5063243;28;67210;-74
2021/06/21 03:47:57;;;;;;;;;5.75;5.00;;;;;25.32;50.25;99760.88;5097945;27;51611;-74
2021/06/21 03:50:22;;;;;;;;;7.00;6.00;;;;;25.33;49.87;99759.91;5067643;27;45426;-74
2021/06/21 03:52:47;;;;;;;;;7.00;5.00;;;;;25.34;49.93;99761.59;5101232;27;74396;-74
2021/06/21 03:55:13;;;;;;;;;4.00;3.50;;;;;25.32;49.58;99758.19;5066989;27;45419;-74
2021/06/21 03:57:40;;;;;;;;;4.00;4.00;;;;;25.35;49.86;99762.47;5102382;27;45469;-74
2021/06/21 04:00:14;;;;;;;;;4.75;4.50;;;;;25.35;49.88;99766.00;5084196;27;45386;-74
2021/06/21 04:02:39;;;;;;;;;4.25;4.25;;;;;25.35;49.69;99770.47;5102210;27;46001;-75
2021/06/21 04:05:05;;;;;;;;;8.00;5.75;;;;;25.38;49.73;99767.63;5083968;27;45381;-75
2021/06/21 04:07:30;;;;;;;;;4.50;4.00;;;;;25.39;49.80;99773.81;5084067;27;45328;-75
2021/06/21 04:09:56;;;;;;;;;5.75;4.25;;;;;25.41;49.70;99775.41;5101472;27;55590;-74
2021/06/21 04:12:23;;;;;;;;;6.50;5.75;;;;;25.41;49.77;99769.22;5083652;27;47180;-75
2021/06/21 04:14:49;;;;;;;;;6.00;4.25;;;;;25.29;49.41;99757.56;5066866;27;45805;-75
2021/06/21 04:17:15;;;;;;;;;5.25;4.00;;;;;25.14;49.62;99758.56;5067045;27;45344;-75
2021/06/21 04:19:40;;;;;;;;;4.50;4.50;;;;;25.17;50.00;99777.06;5102132;27;45250;-75
2021/06/21 04:22:06;;;;;;;;;4.00;4.00;;;;;25.13;49.96;99783.56;5101445;27;53834;-75
2021/06/21 04:24:31;;;;;;;;;5.00;5.00;;;;;25.15;50.06;99784.31;5066610;27;45360;-75
2021/06/21 04:26:59;;;;;;;;;6.00;5.25;;;;;25.19;50.15;99797.34;5083308;27;48476;-75
2021/06/21 04:29:24;;;;;;;;;4.00;4.00;;;;;25.22;49.70;99789.16;5083367;27;45401;-75
2021/06/21 04:31:50;;;;;;;;;7.00;6.75;;;;;25.26;50.09;99779.09;5101010;27;64907;-75
2021/06/21 04:34:15;;;;;;;;;5.25;5.00;;;;;25.28;49.61;99786.09;5101771;27;45345;-75
2021/06/21 04:36:44;;;;;;;;;5.75;5.00;;;;;25.29;49.51;99784.25;5049390;28;45371;-75
2021/06/21 04:39:09;;;;;;;;;6.25;6.00;;;;;25.27;49.58;99787.00;5073748;27;45197;-75
2021/06/21 04:41:35;;;;;;;;;6.75;6.75;;;;;25.21;49.67;99792.78;5065855;27;58986;-75
2021/06/21 04:44:00;;;;;;;;;5.00;5.00;;;;;25.21;49.83;99794.59;5083430;27;45278;-75
2021/06/21 04:46:29;;;;;;;;;5.50;5.50;;;;;25.21;49.43;99802.63;5065654;27;62727;-75
2021/06/21 04:48:54;;;;;;;;;6.25;4.50;;;;;25.21;49.73;99798.13;5067418;27;45336;-74
2021/06/21 04:51:26;;;;;;;;;4.75;4.75;;;;;25.22;49.69;99798.97;5035842;28;49774;-75
2021/06/21 04:53:51;;;;;;;;;7.00;7.00;;;;;25.22;49.78;99798.97;5074201;27;45318;-75
2021/06/21 04:56:20;;;;;;;;;7.00;5.50;;;;;25.13;49.78;99788.91;5066210;27;45525;-75
2021/06/21 04:58:46;;;;;;;;;4.75;3.00;;;;;25.07;49.74;99800.84;5049636;27;45486;-75
2021/06/21 05:01:12;;;;;;;;;5.50;5.50;;;;;25.14;50.20;99814.66;5054264;27;47098;-75
2021/06/21 05:03:37;;;;;;;;;5.00;5.00;;;;;25.19;49.44;99808.03;5054184;28;45257;-77
2021/06/21 05:06:04;;;;;;;;;7.25;6.50;;;;;25.19;49.93;99809.84;5099531;27;45243;-74
2021/06/21 05:08:30;;;;;;;;;7.00;7.00;;;;;25.16;50.22;99810.06;5083240;27;45364;-77
2021/06/21 05:10:55;;;;;;;;;6.00;6.00;;;;;25.10;50.31;99805.97;5032041;28;46226;-77
2021/06/21 05:13:20;;;;;;;;;6.25;6.25;;;;;25.18;49.80;99806.31;5065113;28;45272;-81
2021/06/21 05:15:46;;;;;;;;;8.75;7.00;;;;;25.17;49.82;99812.63;5066639;27;45333;-79
2021/06/21 05:18:14;;;;;;;;;6.75;6.00;;;;;25.19;50.49;99815.19;5083231;27;45279;-76
2021/06/21 05:20:40;;;;;;;;;8.25;8.00;;;;;25.23;50.35;99816.72;5082693;27;46541;-74
2021/06/21 05:23:06;;;;;;;;;7.00;5.50;;;;;25.26;49.97;99813.81;5080783;28;45389;-75
2021/06/21 05:25:33;;;;;;;;;9.00;8.50;;;;;25.30;50.45;99824.22;5078788;28;45433;-74
2021/06/21 05:27:59;;;;;;;;;6.25;6.00;;;;;25.27;50.18;99815.53;5062466;28;45421;-75
2021/06/21 05:30:24;;;;;;;;;6.25;6.25;;;;;25.24;50.03;99816.59;5080660;27;45293;-72
2021/06/21 05:32:50;;;;;;;;;6.00;6.00;;;;;25.17;50.49;99817.97;5080174;27;54400;-73
2021/06/21 05:35:15;;;;;;;;;9.00;7.75;;;;;25.19;50.28;99817.84;5079933;28;49011;-72
2021/06/21 05:37:41;;;;;;;;;8.50;8.50;;;;;25.25;50.65;99830.81;5079327;28;45697;-69
2021/06/21 05:40:07;;;;;;;;;9.25;8.75;;;;;25.23;51.11;99819.38;5081189;28;51902;-67
2021/06/21 05:42:32;;;;;;;;;8.75;6.25;;;;;25.29;50.72;99819.00;5045303;28;45360;-73
2021/06/21 05:44:57;;;;;;;;;8.75;8.00;;;;;25.33;50.89;99829.34;5061823;28;50549;-69
2021/06/21 05:47:24;;;;;;;;;9.25;6.75;;;;;25.34;50.52;99831.06;5078811;28;49532;-70
2021/06/21 05:49:49;;;;;;;;;11.00;10.25;;;;;25.34;51.22;99836.41;5080112;27;45411;-69
2021/06/21 05:52:15;;;;;;;;;7.50;7.50;;;;;25.41;50.80;99831.50;5080064;27;45371;-69
2021/06/21 05:54:40;;;;;;;;;7.00;7.00;;;;;25.46;50.32;99840.09;5079914;27;45301;-68
2021/06/21 05:57:06;;;;;;;;;8.00;7.25;;;;;25.47;49.99;99847.16;5062044;28;45480;-71
2021/06/21 05:59:31;;;;;;;;;8.75;7.00;;;;;25.54;50.39;99852.91;5061723;28;48286;-71
2021/06/21 06:01:57;;;;;;;;;7.50;7.25;;;;;25.60;49.95;99849.84;5079995;27;45417;-70
2021/06/21 06:04:22;;;;;;;;;8.50;6.75;;;;;25.64;49.46;99862.06;5079516;28;58616;-69
2021/06/21 06:06:47;;;;;;;;;6.75;6.75;;;;;25.62;49.72;99862.13;5078823;28;45250;-70
2021/06/21 06:09:13;;;;;;;;;7.00;6.00;;;;;25.63;49.25;99863.88;5078601;28;46458;-70
2021/06/21 06:11:38;;;;;;;;;5.25;5.25;;;;;25.62;49.21;99867.47;5079453;28;58770;-68
2021/06/21 06:14:04;;;;;;;;;6.25;6.00;;;;;25.59;49.51;99867.69;5079916;28;45416;-71
2021/06/21 06:16:29;;;;;;;;;9.25;6.00;;;;;25.58;49.18;99876.66;5078602;28;45398;-68
2021/06/21 06:18:55;;;;;;;;;8.00;7.50;;;;;25.54;49.55;99874.28;5079759;28;46592;-68
2021/06/21 06:21:21;;;;;;;;;11.00;7.75;;;;;25.46;49.18;99876.63;5078430;28;45336;-68
2021/06/21 06:23:46;;;;;;;;;5.00;4.00;;;;;25.41;49.00;99884.09;5061616;28;45430;-68
2021/06/21 06:26:12;;;;;;;;;6.50;6.00;;;;;25.38;49.02;99882.50;5044149;28;64688;-69
2021/06/21 06:28:40;;;;;;;;;5.00;5.00;;;;;25.32;48.95;99889.06;5078216;28;46145;-69
2021/06/21 06:31:06;;;;;;;;;6.25;5.75;;;;;25.20;48.74;99887.22;5061942;28;45336;-71
2021/06/21 06:33:32;;;;;;;;;6.50;6.00;;;;;25.14;49.05;99879.59;5061876;28;45446;-71
2021/06/21 06:35:57;;;;;;;;;6.00;6.00;;;;;25.15;49.14;99878.63;5078346;28;45251;-69
2021/06/21 06:38:23;;;;;;;;;6.00;6.00;;;;;25.18;48.96;99865.06;5064422;28;48113;-71
2021/06/21 06:40:48;;;;;;;;;5.25;5.25;;;;;25.19;49.60;99863.25;5064909;28;45254;-71
2021/06/21 06:43:14;;;;;;;;;5.75;5.00;;;;;25.16;49.75;99847.44;5064423;28;50807;-67
2021/06/21 06:45:40;;;;;;;;;6.00;6.00;;;;;25.13;48.47;99851.19;5081897;28;45585;-72
2021/06/21 06:48:05;;;;;;;;;7.00;6.00;;;;;25.09;48.70;99857.66;5043674;28;48209;-69
2021/06/21 06:50:31;;;;;;;;;6.25;6.25;;;;;25.06;49.20;99852.53;5043659;28;45672;-67
2021/06/21 06:52:58;;;;;;;;;7.00;6.75;;;;;25.09;49.24;99861.19;5082679;28;45708;-67
2021/06/21 06:58:07;;;;;;;;;6.75;6.75;;;;;25.14;48.48;99870.72;5067971;28;45414;-67
2021/06/21 07:00:36;;;;;;;;;5.50;4.25;;;;;25.14;48.24;99868.91;5047907;28;45490;-67
2021/06/21 07:03:01;;;;;;;;;4.25;4.25;;;;;25.10;48.52;99867.38;5068125;28;45404;-67
2021/06/21 07:05:26;;;;;;;;;7.00;7.00;;;;;25.15;48.41;99867.94;5062908;28;45620;-67
2021/06/21 07:07:58;;;;;;;;;5.25;5.25;;;;;25.17;48.80;99870.53;5034273;28;47170;-67
2021/06/21 07:10:24;;;;;;;;;7.00;5.00;;;;;25.21;48.41;99870.22;5057736;28;45385;-67
2021/06/21 07:12:49;;;;;;;;;7.00;5.00;;;;;25.23;48.03;99876.31;5081033;28;45500;-67
2021/06/21 07:15:15;;;;;;;;;6.75;5.75;;;;;25.23;47.89;99876.31;5076112;28;59564;-66
2021/06/21 07:17:40;;;;;;;;;5.50;5.50;;;;;25.24;48.08;99883.38;5061200;28;47160;-66
2021/06/21 07:20:06;;;;;;;;;4.75;4.75;;;;;25.21;47.22;99880.06;5067355;28;58742;-66
2021/06/21 07:22:31;;;;;;;;;6.00;5.25;;;;;25.20;47.97;99886.38;5089946;27;45394;-66
2021/06/21 07:24:57;;;;;;;;;6.50;6.50;;;;;25.19;47.92;99885.47;5064227;27;49300;-68
2021/06/21 07:27:22;;;;;;;;;5.00;5.00;;;;;25.20;47.44;99889.88;5065554;27;56588;-67
2021/06/21 07:29:50;;;;;;;;;6.50;6.25;;;;;25.19;47.69;99893.47;5051453;27;45363;-67
2021/06/21 07:32:16;;;;;;;;;4.25;4.25;;;;;25.18;47.34;99902.47;5057998;28;45640;-67
2021/06/21 07:34:43;;;;;;;;;6.00;5.00;;;;;25.18;47.02;99901.59;5060482;27;45752;-67
2021/06/21 07:37:08;;;;;;;;;6.75;4.75;;;;;25.16;46.94;99907.03;5084673;27;45444;-67
2021/06/21 07:39:33;;;;;;;;;4.50;4.50;;;;;25.18;46.97;99904.28;5066976;27;45303;-67
2021/06/21 07:41:59;;;;;;;;;5.00;5.00;;;;;25.19;46.64;99909.50;5065073;27;46186;-66
2021/06/21 07:44:24;;;;;;;;;4.00;4.00;;;;;25.19;46.76;99911.31;5063211;27;45450;-67
2021/06/21 07:46:50;;;;;;;;;6.25;5.00;;;;;25.18;46.65;99905.13;5092303;27;45421;-67
2021/06/21 07:49:15;;;;;;;;;3.75;3.75;;;;;25.20;46.50;99911.25;5083479;27;48588;-66
2021/06/21 07:51:42;;;;;;;;;5.50;4.00;;;;;25.26;46.19;99908.16;5064453;28;45455;-67
2021/06/21 07:54:07;;;;;;;;;4.00;4.00;;;;;25.28;46.77;99916.06;5096673;27;45323;-67
2021/06/21 07:56:33;;;;;;;;;4.00;4.00;;;;;25.34;46.48;99916.53;5065344;27;48262;-67
2021/06/21 07:58:58;;;;;;;;;6.00;6.00;;;;;25.43;45.70;99914.22;5082655;27;45390;-67
2021/06/21 08:01:23;;;;;;;;;3.00;3.00;;;;;25.49;44.52;99917.34;5103066;27;45238;-67
2021/06/21 08:03:49;;;;;;;;;4.00;4.00;;;;;25.52;44.44;99922.50;5082833;27;45478;-67
2021/06/21 08:06:14;;;;;;;;;4.75;3.50;;;;;25.58;44.22;99927.44;5082890;27;51491;-67
2021/06/21 08:08:41;;;;;;;;;3.00;3.00;;;;;25.62;44.30;99930.75;5081792;27;51455;-67
2021/06/21 08:11:06;;;;;;;;;3.25;3.25;;;;;25.64;43.36;99926.19;5083025;27;45320;-67
2021/06/21 08:13:32;;;;;;;;;2.25;2.25;;;;;25.64;42.81;99924.38;5097017;27;45427;-67
2021/06/21 08:15:59;;;;;;;;;2.00;2.00;;;;;25.63;42.61;99936.03;5056752;27;47436;-67
2021/06/21 08:18:25;;;;;;;;;2.00;2.00;;;;;25.61;42.55;99937.91;5088348;27;45273;-67
2021/06/21 08:20:50;;;;;;;;;3.00;2.00;;;;;25.60;42.03;99941.56;5066154;27;45418;-67
2021/06/21 08:23:16;;;;;;;;;2.75;2.75;;;;;25.60;41.88;99938.03;5088944;27;45253;-67
2021/06/21 08:25:42;;;;;;;;;3.25;3.25;;;;;25.63;42.19;99943.19;5069259;27;46279;-67
2021/06/21 08:28:07;;;;;;;;;2.00;2.00;;;;;25.66;42.11;99940.31;5065869;27;46299;-67
2021/06/21 08:30:33;;;;;;;;;2.50;2.00;;;;;25.65;41.62;99935.91;5058608;28;47782;-67
2021/06/21 08:32:58;;;;;;;;;2.50;2.50;;;;;25.65;41.50;99942.13;5077350;27;45228;-67
2021/06/21 08:35:24;;;;;;;;;1.50;1.50;;;;;25.70;41.60;99944.47;5064470;27;46689;-67
2021/06/21 08:37:49;;;;;;;;;1.75;1.75;;;;;25.71;41.02;99935.53;5076393;27;46142;-67
2021/06/21 08:40:15;;;;;;;;;2.00;2.00;;;;;25.76;40.97;99930.75;5080548;27;45399;-67
2021/06/21 08:42:41;;;;;;;;;1.00;1.00;;;;;25.78;40.41;99926.13;5069535;27;45210;-67
2021/06/21 08:45:07;;;;;;;;;1.75;1.00;;;;;25.79;40.46;99932.34;5075184;28;48558;-72
2021/06/21 08:47:32;;;;;;;;;3.00;1.50;;;;;25.81;40.19;99925.97;5046080;27;45226;-67
2021/06/21 08:49:58;;;;;;;;;1.25;1.25;;;;;25.81;39.44;99933.13;5041157;28;66880;-67
2021/06/21 08:52:26;;;;;;;;;2.00;2.00;;;;;25.80;40.18;99932.28;5055410;27;45543;-67
2021/06/21 08:54:52;;;;;;;;;2.25;1.75;;;;;25.81;39.74;99931.31;5100280;27;46081;-66
2021/06/21 08:57:18;;;;;;;;;1.50;1.00;;;;;25.82;39.06;99929.50;5054185;27;46426;-67
2021/06/21 08:59:43;;;;;;;;;2.00;2.00;;;;;25.88;39.45;99937.06;5077294;27;45315;-67
2021/06/21 09:02:11;;;;;;;;;1.50;1.50;;;;;25.90;39.52;99941.38;5089171;27;52038;-66
2021/06/21 09:04:38;;;;;;;;;1.25;1.25;;;;;25.92;39.20;99935.94;5094247;27;45612;-67
2021/06/21 09:07:20;;;;;;;;;1.00;1.00;;;;;25.93;39.43;99941.16;5048768;27;45466;-67
2021/06/21 09:09:46;;;;;;;;;1.00;1.00;;;;;25.96;39.11;99934.75;5065689;27;45186;-67
2021/06/21 09:12:11;;;;;;;;;1.00;1.00;;;;;25.98;38.87;99942.69;5068589;27;45535;-67
2021/06/21 09:14:37;;;;;;;;;1.00;1.00;;;;;25.98;38.92;99934.66;5065533;27;48311;-67
2021/06/21 09:17:08;;;;;;;;;1.00;1.00;;;;;25.95;38.93;99930.38;5065633;27;45565;-67
2021/06/21 09:19:49;;;;;;;;;2.00;1.00;;;;;25.97;39.28;99931.09;5066246;27;45276;-67
2021/06/21 09:22:24;;;;;;;;;2.00;1.50;;;;;26.00;39.25;99935.41;5082109;27;45451;-67
2021/06/21 09:24:50;;;;;;;;;1.25;1.25;;;;;25.99;39.58;99941.72;5082652;27;46427;-74
2021/06/21 09:27:19;;;;;;;;;1.00;1.00;;;;;26.00;39.28;99946.09;5081875;27;45493;-68
2021/06/21 09:29:45;;;;;;;;;1.00;1.00;;;;;26.01;39.33;99947.81;5065048;27;45349;-68
2021/06/21 09:32:10;;;;;;;;;1.25;1.25;;;;;26.08;39.15;99946.44;5063917;27;50755;-68
2021/06/21 09:34:38;;;;;;;;;1.00;1.00;;;;;26.14;39.77;99946.00;5079894;27;45458;-69
2021/06/21 09:37:11;;;;;;;;;2.00;2.00;;;;;26.18;38.74;99950.22;5063337;27;45668;-73
2021/06/21 09:39:44;;;;;;;;;2.00;2.00;;;;;26.23;38.38;99957.91;5080616;27;45571;-72
2021/06/21 09:42:23;;;;;;;;;2.25;1.75;;;;;26.24;38.24;99956.94;5081021;27;45348;-71
2021/06/21 09:44:58;;;;;;;;;2.25;2.25;;;;;26.25;37.84;99964.03;5034756;27;48581;-71
2021/06/21 09:47:31;;;;;;;;;3.00;3.00;;;;;26.30;38.89;99969.91;5041809;27;45537;-71
2021/06/21 09:50:12;;;;;;;;;2.00;2.00;;;;;26.34;38.79;99971.44;5065196;27;45300;-71
2021/06/21 09:53:04;;;;;;;;;1.00;1.00;;;;;26.32;38.36;99968.84;5099602;27;45496;-72
2021/06/21 09:55:46;;;;;;;;;1.25;1.25;;;;;26.31;38.18;99972.47;5076784;27;48566;-68
2021/06/21 09:58:11;;;;;;;;;3.00;1.00;;;;;26.31;38.31;99975.16;5086914;27;45255;-69
2021/06/21 10:00:50;;;;;;;;;3.00;2.25;;;;;26.30;38.20;99975.25;5100352;27;45259;-69
2021/06/21 10:03:26;;;;;;;;;2.00;1.00;;;;;26.30;38.22;99989.50;5082013;27;45340;-69
2021/06/21 10:06:00;;;;;;;;;2.00;2.00;;;;;26.29;38.43;99984.25;5066035;27;46232;-69
2021/06/21 10:08:46;;;;;;;;;1.75;1.75;;;;;26.30;38.38;99986.81;5069653;28;45364;-69
2021/06/21 10:11:32;;;;;;;;;2.00;2.00;;;;;26.31;38.34;99983.16;5049526;27;45433;-68
2021/06/21 10:13:59;;;;;;;;;2.50;2.50;;;;;26.30;38.42;99984.13;5103684;27;45418;-69
2021/06/21 10:16:25;;;;;;;;;3.00;2.00;;;;;26.32;38.39;99989.38;5068527;27;46398;-69
2021/06/21 10:18:51;;;;;;;;;2.50;1.50;;;;;26.32;38.53;99989.38;5103460;27;45236;-68
2021/06/21 10:21:16;;;;;;;;;2.50;2.50;;;;;26.36;39.01;99994.44;5048417;28;45392;-69
2021/06/21 10:23:44;;;;;;;;;2.00;2.00;;;;;26.38;38.70;99999.72;5081499;27;45770;-70
2021/06/21 10:26:09;;;;;;;;;2.00;2.00;;;;;26.39;38.94;99994.25;5068591;27;45435;-70
2021/06/21 10:28:35;;;;;;;;;2.75;2.00;;;;;26.40;38.79;99987.94;5067848;27;45544;-70
2021/06/21 10:31:01;;;;;;;;;3.00;3.00;;;;;26.40;39.12;99976.38;5041610;28;45345;-70
2021/06/21 10:33:27;;;;;;;;;1.50;1.50;;;;;26.42;38.63;99978.00;5048281;28;45558;-70
2021/06/21 10:35:58;;;;;;;;;2.50;2.00;;;;;26.41;38.68;99975.41;5063279;28;59506;-70
2021/06/21 10:38:23;;;;;;;;;2.00;2.00;;;;;26.38;39.25;99981.84;5064359;28;45780;-69
2021/06/21 10:41:02;;;;;;;;;3.50;1.50;;;;;26.41;39.33;99980.75;5084739;27;45494;-70
2021/06/21 10:43:57;;;;;;;;;3.00;3.00;;;;;26.42;39.21;99979.81;5103254;27;45311;-69
2021/06/21 10:46:27;;;;;;;;;2.00;2.00;;;;;26.41;38.93;99980.75;5079182;27;62247;-69
2021/06/21 10:48:59;;;;;;;;;2.00;2.00;;;;;26.41;38.92;99981.66;5103397;27;45504;-69
2021/06/21 10:51:38;;;;;;;;;3.00;2.00;;;;;26.40;38.76;99985.25;5103089;27;45425;-68
2021/06/21 10:54:05;;;;;;;;;2.00;1.00;;;;;26.40;39.12;99982.56;5064294;28;45848;-69
2021/06/21 10:56:43;;;;;;;;;1.50;1.00;;;;;26.38;39.03;99981.84;5084212;27;45974;-70
2021/06/21 10:59:25;;;;;;;;;1.75;1.50;;;;;26.37;38.87;99980.09;5084638;27;45495;-71
2021/06/21 11:01:59;;;;;;;;;3.00;3.00;;;;;26.38;39.10;99979.16;5059173;27;45445;-71
2021/06/21 11:04:39;;;;;;;;;2.00;2.00;;;;;26.29;38.92;99963.69;5083696;27;67637;-71
2021/06/21 11:07:15;;;;;;;;;1.00;1.00;;;;;26.36;39.01;99981.06;5084409;27;47502;-70
2021/06/21 11:09:44;;;;;;;;;2.00;2.00;;;;;26.39;39.44;99985.34;5051784;27;45290;-70
2021/06/21 11:12:26;;;;;;;;;3.00;2.50;;;;;26.40;39.14;99982.56;5084906;27;45415;-70
2021/06/21 11:15:04;;;;;;;;;2.00;2.00;;;;;26.43;38.99;99979.72;5102919;27;45425;-70
2021/06/21 11:17:31;;;;;;;;;2.50;2.25;;;;;26.44;38.82;99981.41;5102784;27;46032;-70
2021/06/21 11:19:56;;;;;;;;;1.50;1.50;;;;;26.44;39.07;99978.75;5084725;27;45373;-70
2021/06/21 11:22:42;;;;;;;;;1.00;1.00;;;;;26.41;38.72;99973.63;5067573;27;45347;-70
2021/06/21 11:25:23;;;;;;;;;2.25;2.00;;;;;26.39;38.51;99970.16;5101773;27;45440;-70
2021/06/21 11:27:50;;;;;;;;;3.00;1.50;;;;;26.36;38.64;99973.03;5084401;27;46127;-71
2021/06/21 11:30:29;;;;;;;;;3.50;2.00;;;;;26.34;38.75;99974.97;5084534;27;45444;-71
2021/06/21 11:32:56;;;;;;;;;3.50;1.75;;;;;26.34;38.87;99966.06;5102866;27;45336;-70
2021/06/21 11:35:56;;;;;;;;;2.00;2.00;;;;;26.35;38.65;99962.44;5102445;27;45252;-70
2021/06/21 11:38:38;;;;;;;;;1.00;1.00;;;;;26.29;38.50;99952.16;5093881;27;46212;-69
2021/06/21 11:41:23;;;;;;;;;2.50;1.00;;;;;26.36;39.09;99972.16;5102621;27;45386;-71